sensor_id;sensor_type;location;lat;lon;timestamp;P1;durP1;ratioP1;P2;durP2;ratioP2
29812;SDS011;16707;48.106;11.548;2023-05-29T00:01:32;10.13;;;7.72;;
29812;SDS011;16707;48.106;11.548;2023-05-29T00:04:21;11.90;;;7.63;;
29812;SDS011;16707;48.106;11.548;2023-05-29T00:06:54;11.68;;;7.70;;
29812;SDS011;16707;48.106;11.548;2023-05-29T00:09:27;12.13;;;7.20;;
29812;SDS011;16707;48.106;11.548;2023-05-29T00:11:56;11.75;;;7.50;;
29812;SDS011;16707;48.106;11.548;2023-05-29T00:14:28;12.95;;;7.57;;
29812;SDS011;16707;48.106;11.548;2023-05-29T00:16:55;12.93;;;7.43;;
29812;SDS011;16707;48.106;11.548;2023-05-29T00:19:26;12.77;;;7.72;;
29812;SDS011;16707;48.106;11.548;2023-05-29T00:21:57;12.85;;;8.07;;
29812;SDS011;16707;48.106;11.548;2023-05-29T00:24:33;12.25;;;7.60;;
29812;SDS011;16707;48.106;11.548;2023-05-29T00:27:00;11.20;;;7.00;;
29812;SDS011;16707;48.106;11.548;2023-05-29T00:29:35;13.02;;;7.43;;
29812;SDS011;16707;48.106;11.548;2023-05-29T00:32:04;12.57;;;8.07;;
29812;SDS011;16707;48.106;11.548;2023-05-29T00:34:40;12.68;;;7.70;;
29812;SDS011;16707;48.106;11.548;2023-05-29T00:37:11;12.55;;;7.07;;
29812;SDS011;16707;48.106;11.548;2023-05-29T00:39:39;10.77;;;7.25;;
29812;SDS011;16707;48.106;11.548;2023-05-29T00:42:12;9.65;;;6.18;;
29812;SDS011;16707;48.106;11.548;2023-05-29T00:44:46;10.50;;;7.28;;
29812;SDS011;16707;48.106;11.548;2023-05-29T00:47:22;11.60;;;7.32;;
29812;SDS011;16707;48.106;11.548;2023-05-29T00:50:03;9.93;;;7.13;;
29812;SDS011;16707;48.106;11.548;2023-05-29T00:52:39;10.85;;;7.15;;
29812;SDS011;16707;48.106;11.548;2023-05-29T00:55:09;9.95;;;6.68;;
29812;SDS011;16707;48.106;11.548;2023-05-29T00:57:37;13.02;;;7.32;;
29812;SDS011;16707;48.106;11.548;2023-05-29T01:00:08;10.60;;;7.10;;
29812;SDS011;16707;48.106;11.548;2023-05-29T01:02:39;8.93;;;6.85;;
29812;SDS011;16707;48.106;11.548;2023-05-29T01:05:13;10.95;;;7.32;;
29812;SDS011;16707;48.106;11.548;2023-05-29T01:07:44;12.98;;;6.68;;
29812;SDS011;16707;48.106;11.548;2023-05-29T01:10:17;12.02;;;6.78;;
29812;SDS011;16707;48.106;11.548;2023-05-29T01:12:51;11.70;;;6.70;;
29812;SDS011;16707;48.106;11.548;2023-05-29T01:15:31;11.10;;;6.35;;
29812;SDS011;16707;48.106;11.548;2023-05-29T01:18:08;13.18;;;6.72;;
29812;SDS011;16707;48.106;11.548;2023-05-29T01:20:50;10.98;;;7.07;;
29812;SDS011;16707;48.106;11.548;2023-05-29T01:23:25;11.48;;;7.80;;
29812;SDS011;16707;48.106;11.548;2023-05-29T01:26:10;9.68;;;6.53;;
29812;SDS011;16707;48.106;11.548;2023-05-29T01:28:52;11.15;;;6.25;;
29812;SDS011;16707;48.106;11.548;2023-05-29T01:31:26;8.38;;;6.03;;
29812;SDS011;16707;48.106;11.548;2023-05-29T01:33:58;11.38;;;7.15;;
29812;SDS011;16707;48.106;11.548;2023-05-29T01:36:28;11.43;;;6.60;;
29812;SDS011;16707;48.106;11.548;2023-05-29T01:39:04;10.35;;;6.78;;
29812;SDS011;16707;48.106;11.548;2023-05-29T01:41:36;10.27;;;6.40;;
29812;SDS011;16707;48.106;11.548;2023-05-29T01:44:08;9.98;;;6.55;;
29812;SDS011;16707;48.106;11.548;2023-05-29T01:46:36;11.55;;;7.68;;
29812;SDS011;16707;48.106;11.548;2023-05-29T01:49:13;12.77;;;7.32;;
29812;SDS011;16707;48.106;11.548;2023-05-29T01:51:44;10.25;;;6.38;;
29812;SDS011;16707;48.106;11.548;2023-05-29T01:54:15;11.85;;;6.22;;
29812;SDS011;16707;48.106;11.548;2023-05-29T01:56:47;9.13;;;6.22;;
29812;SDS011;16707;48.106;11.548;2023-05-29T01:59:24;9.60;;;6.13;;
29812;SDS011;16707;48.106;11.548;2023-05-29T02:01:54;11.07;;;6.00;;
29812;SDS011;16707;48.106;11.548;2023-05-29T02:04:27;9.10;;;6.23;;
29812;SDS011;16707;48.106;11.548;2023-05-29T02:07:03;12.57;;;5.72;;
29812;SDS011;16707;48.106;11.548;2023-05-29T02:09:31;9.30;;;5.78;;
29812;SDS011;16707;48.106;11.548;2023-05-29T02:12:01;10.40;;;6.25;;
29812;SDS011;16707;48.106;11.548;2023-05-29T02:14:35;10.95;;;6.30;;
29812;SDS011;16707;48.106;11.548;2023-05-29T02:17:14;8.85;;;6.03;;
29812;SDS011;16707;48.106;11.548;2023-05-29T02:19:45;10.60;;;6.45;;
29812;SDS011;16707;48.106;11.548;2023-05-29T02:22:21;11.60;;;6.38;;
29812;SDS011;16707;48.106;11.548;2023-05-29T02:24:54;9.13;;;5.80;;
29812;SDS011;16707;48.106;11.548;2023-05-29T02:27:28;12.15;;;6.25;;
29812;SDS011;16707;48.106;11.548;2023-05-29T02:29:57;10.52;;;6.00;;
29812;SDS011;16707;48.106;11.548;2023-05-29T02:32:30;7.03;;;5.25;;
29812;SDS011;16707;48.106;11.548;2023-05-29T02:34:57;8.40;;;5.80;;
29812;SDS011;16707;48.106;11.548;2023-05-29T02:37:32;10.07;;;5.90;;
29812;SDS011;16707;48.106;11.548;2023-05-29T02:40:00;10.25;;;6.20;;
29812;SDS011;16707;48.106;11.548;2023-05-29T02:42:29;9.05;;;4.93;;
29812;SDS011;16707;48.106;11.548;2023-05-29T02:45:06;9.15;;;5.90;;
29812;SDS011;16707;48.106;11.548;2023-05-29T02:47:40;10.52;;;7.32;;
29812;SDS011;16707;48.106;11.548;2023-05-29T02:50:07;9.45;;;6.35;;
29812;SDS011;16707;48.106;11.548;2023-05-29T02:52:42;9.32;;;5.97;;
29812;SDS011;16707;48.106;11.548;2023-05-29T02:55:19;10.77;;;6.03;;
29812;SDS011;16707;48.106;11.548;2023-05-29T02:57:46;11.23;;;6.18;;
29812;SDS011;16707;48.106;11.548;2023-05-29T03:00:19;10.90;;;6.18;;
29812;SDS011;16707;48.106;11.548;2023-05-29T03:02:51;11.68;;;6.00;;
29812;SDS011;16707;48.106;11.548;2023-05-29T03:05:21;10.27;;;5.75;;
29812;SDS011;16707;48.106;11.548;2023-05-29T03:07:58;9.68;;;5.47;;
29812;SDS011;16707;48.106;11.548;2023-05-29T03:10:25;8.57;;;5.78;;
29812;SDS011;16707;48.106;11.548;2023-05-29T03:12:52;9.43;;;5.78;;
29812;SDS011;16707;48.106;11.548;2023-05-29T03:15:24;9.57;;;6.10;;
29812;SDS011;16707;48.106;11.548;2023-05-29T03:17:53;8.75;;;5.22;;
29812;SDS011;16707;48.106;11.548;2023-05-29T03:20:26;8.45;;;5.80;;
29812;SDS011;16707;48.106;11.548;2023-05-29T03:22:56;8.80;;;5.47;;
29812;SDS011;16707;48.106;11.548;2023-05-29T03:25:23;8.88;;;5.80;;
29812;SDS011;16707;48.106;11.548;2023-05-29T03:27:56;8.95;;;5.72;;
29812;SDS011;16707;48.106;11.548;2023-05-29T03:30:25;9.35;;;5.85;;
29812;SDS011;16707;48.106;11.548;2023-05-29T03:32:52;9.73;;;5.32;;
29812;SDS011;16707;48.106;11.548;2023-05-29T03:35:30;8.27;;;5.70;;
29812;SDS011;16707;48.106;11.548;2023-05-29T03:38:00;9.25;;;5.57;;
29812;SDS011;16707;48.106;11.548;2023-05-29T03:40:29;11.90;;;6.07;;
29812;SDS011;16707;48.106;11.548;2023-05-29T03:43:05;9.18;;;5.60;;
29812;SDS011;16707;48.106;11.548;2023-05-29T03:45:34;11.93;;;6.35;;
29812;SDS011;16707;48.106;11.548;2023-05-29T03:48:04;9.77;;;6.15;;
29812;SDS011;16707;48.106;11.548;2023-05-29T03:50:36;12.20;;;5.90;;
29812;SDS011;16707;48.106;11.548;2023-05-29T03:53:03;8.68;;;5.57;;
29812;SDS011;16707;48.106;11.548;2023-05-29T03:55:36;9.13;;;5.50;;
29812;SDS011;16707;48.106;11.548;2023-05-29T03:58:07;8.57;;;5.15;;
29812;SDS011;16707;48.106;11.548;2023-05-29T04:00:43;8.68;;;5.70;;
29812;SDS011;16707;48.106;11.548;2023-05-29T04:03:14;7.72;;;5.35;;
29812;SDS011;16707;48.106;11.548;2023-05-29T04:05:48;7.68;;;5.18;;
29812;SDS011;16707;48.106;11.548;2023-05-29T04:08:15;9.30;;;4.93;;
29812;SDS011;16707;48.106;11.548;2023-05-29T04:10:42;9.35;;;4.50;;
29812;SDS011;16707;48.106;11.548;2023-05-29T04:13:09;6.95;;;4.40;;
29812;SDS011;16707;48.106;11.548;2023-05-29T04:15:39;8.20;;;4.40;;
29812;SDS011;16707;48.106;11.548;2023-05-29T04:18:08;7.82;;;4.68;;
29812;SDS011;16707;48.106;11.548;2023-05-29T04:20:42;9.32;;;4.88;;
29812;SDS011;16707;48.106;11.548;2023-05-29T04:23:16;7.47;;;4.75;;
29812;SDS011;16707;48.106;11.548;2023-05-29T04:25:45;8.37;;;4.73;;
29812;SDS011;16707;48.106;11.548;2023-05-29T04:28:18;7.28;;;4.43;;
29812;SDS011;16707;48.106;11.548;2023-05-29T04:30:55;7.95;;;4.45;;
29812;SDS011;16707;48.106;11.548;2023-05-29T04:33:31;8.50;;;4.32;;
29812;SDS011;16707;48.106;11.548;2023-05-29T04:36:10;7.60;;;4.43;;
29812;SDS011;16707;48.106;11.548;2023-05-29T04:38:38;7.60;;;4.72;;
29812;SDS011;16707;48.106;11.548;2023-05-29T04:41:19;7.70;;;4.07;;
29812;SDS011;16707;48.106;11.548;2023-05-29T04:43:49;8.10;;;4.35;;
29812;SDS011;16707;48.106;11.548;2023-05-29T04:46:23;5.35;;;3.60;;
29812;SDS011;16707;48.106;11.548;2023-05-29T04:48:58;8.45;;;4.68;;
29812;SDS011;16707;48.106;11.548;2023-05-29T04:51:28;6.20;;;4.20;;
29812;SDS011;16707;48.106;11.548;2023-05-29T04:54:02;6.38;;;4.10;;
29812;SDS011;16707;48.106;11.548;2023-05-29T04:56:34;6.10;;;4.20;;
29812;SDS011;16707;48.106;11.548;2023-05-29T04:59:11;6.35;;;4.22;;
29812;SDS011;16707;48.106;11.548;2023-05-29T05:01:45;6.60;;;4.22;;
29812;SDS011;16707;48.106;11.548;2023-05-29T05:04:15;6.88;;;4.47;;
29812;SDS011;16707;48.106;11.548;2023-05-29T05:06:50;6.22;;;4.35;;
29812;SDS011;16707;48.106;11.548;2023-05-29T05:09:18;5.63;;;3.88;;
29812;SDS011;16707;48.106;11.548;2023-05-29T05:11:45;6.40;;;4.15;;
29812;SDS011;16707;48.106;11.548;2023-05-29T05:14:15;5.45;;;4.05;;
29812;SDS011;16707;48.106;11.548;2023-05-29T05:16:47;5.68;;;4.05;;
29812;SDS011;16707;48.106;11.548;2023-05-29T05:19:17;5.78;;;4.10;;
29812;SDS011;16707;48.106;11.548;2023-05-29T05:22:00;7.70;;;4.63;;
29812;SDS011;16707;48.106;11.548;2023-05-29T05:24:30;6.43;;;4.50;;
29812;SDS011;16707;48.106;11.548;2023-05-29T05:27:07;8.20;;;4.47;;
29812;SDS011;16707;48.106;11.548;2023-05-29T05:29:34;6.45;;;4.60;;
29812;SDS011;16707;48.106;11.548;2023-05-29T05:32:02;6.53;;;4.80;;
29812;SDS011;16707;48.106;11.548;2023-05-29T05:34:39;7.05;;;5.25;;
29812;SDS011;16707;48.106;11.548;2023-05-29T05:37:10;7.07;;;5.13;;
29812;SDS011;16707;48.106;11.548;2023-05-29T05:39:46;6.90;;;5.10;;
29812;SDS011;16707;48.106;11.548;2023-05-29T05:42:13;9.05;;;5.78;;
29812;SDS011;16707;48.106;11.548;2023-05-29T05:44:43;10.13;;;6.05;;
29812;SDS011;16707;48.106;11.548;2023-05-29T05:47:13;7.43;;;6.07;;
29812;SDS011;16707;48.106;11.548;2023-05-29T05:49:51;8.90;;;5.57;;
29812;SDS011;16707;48.106;11.548;2023-05-29T05:52:19;7.40;;;5.72;;
29812;SDS011;16707;48.106;11.548;2023-05-29T05:54:50;7.00;;;5.43;;
29812;SDS011;16707;48.106;11.548;2023-05-29T05:57:26;7.72;;;5.40;;
29812;SDS011;16707;48.106;11.548;2023-05-29T05:59:58;6.15;;;4.90;;
29812;SDS011;16707;48.106;11.548;2023-05-29T06:02:28;5.68;;;4.97;;
29812;SDS011;16707;48.106;11.548;2023-05-29T06:04:58;7.90;;;5.93;;
29812;SDS011;16707;48.106;11.548;2023-05-29T06:07:32;7.80;;;5.35;;
29812;SDS011;16707;48.106;11.548;2023-05-29T06:10:04;7.00;;;5.35;;
29812;SDS011;16707;48.106;11.548;2023-05-29T06:12:39;8.48;;;5.40;;
29812;SDS011;16707;48.106;11.548;2023-05-29T06:15:30;7.88;;;5.22;;
29812;SDS011;16707;48.106;11.548;2023-05-29T06:18:10;7.53;;;5.18;;
29812;SDS011;16707;48.106;11.548;2023-05-29T06:20:42;7.22;;;5.18;;
29812;SDS011;16707;48.106;11.548;2023-05-29T06:23:22;7.38;;;5.50;;
29812;SDS011;16707;48.106;11.548;2023-05-29T06:25:55;6.85;;;4.97;;
29812;SDS011;16707;48.106;11.548;2023-05-29T06:28:30;6.93;;;5.30;;
29812;SDS011;16707;48.106;11.548;2023-05-29T06:31:05;6.53;;;4.97;;
29812;SDS011;16707;48.106;11.548;2023-05-29T06:33:38;5.97;;;5.07;;
29812;SDS011;16707;48.106;11.548;2023-05-29T06:36:18;5.18;;;4.20;;
29812;SDS011;16707;48.106;11.548;2023-05-29T06:38:47;6.15;;;4.32;;
29812;SDS011;16707;48.106;11.548;2023-05-29T06:41:20;7.43;;;4.57;;
29812;SDS011;16707;48.106;11.548;2023-05-29T06:43:48;6.78;;;4.80;;
29812;SDS011;16707;48.106;11.548;2023-05-29T06:46:17;7.50;;;4.50;;
29812;SDS011;16707;48.106;11.548;2023-05-29T06:48:45;5.60;;;4.07;;
29812;SDS011;16707;48.106;11.548;2023-05-29T06:51:12;5.63;;;5.00;;
29812;SDS011;16707;48.106;11.548;2023-05-29T06:53:52;6.05;;;4.28;;
29812;SDS011;16707;48.106;11.548;2023-05-29T06:56:20;5.43;;;4.05;;
29812;SDS011;16707;48.106;11.548;2023-05-29T06:58:55;5.17;;;4.13;;
29812;SDS011;16707;48.106;11.548;2023-05-29T07:01:22;5.38;;;4.13;;
29812;SDS011;16707;48.106;11.548;2023-05-29T07:03:51;6.38;;;4.30;;
29812;SDS011;16707;48.106;11.548;2023-05-29T07:06:21;5.35;;;4.07;;
29812;SDS011;16707;48.106;11.548;2023-05-29T07:08:50;5.25;;;4.10;;
29812;SDS011;16707;48.106;11.548;2023-05-29T07:11:27;5.15;;;4.00;;
29812;SDS011;16707;48.106;11.548;2023-05-29T07:14:06;4.90;;;4.15;;
29812;SDS011;16707;48.106;11.548;2023-05-29T07:16:38;7.00;;;4.30;;
29812;SDS011;16707;48.106;11.548;2023-05-29T07:19:08;5.88;;;4.30;;
29812;SDS011;16707;48.106;11.548;2023-05-29T07:21:42;6.18;;;4.38;;
29812;SDS011;16707;48.106;11.548;2023-05-29T07:24:30;7.30;;;4.28;;
29812;SDS011;16707;48.106;11.548;2023-05-29T07:27:00;5.60;;;4.13;;
29812;SDS011;16707;48.106;11.548;2023-05-29T07:29:31;5.65;;;4.35;;
29812;SDS011;16707;48.106;11.548;2023-05-29T07:32:01;4.72;;;4.15;;
29812;SDS011;16707;48.106;11.548;2023-05-29T07:34:28;6.07;;;4.30;;
29812;SDS011;16707;48.106;11.548;2023-05-29T07:37:01;6.28;;;4.30;;
29812;SDS011;16707;48.106;11.548;2023-05-29T07:39:32;6.03;;;4.53;;
29812;SDS011;16707;48.106;11.548;2023-05-29T07:42:02;5.20;;;4.10;;
29812;SDS011;16707;48.106;11.548;2023-05-29T07:44:32;8.80;;;4.97;;
29812;SDS011;16707;48.106;11.548;2023-05-29T07:47:04;7.15;;;4.40;;
29812;SDS011;16707;48.106;11.548;2023-05-29T07:49:37;6.78;;;4.80;;
29812;SDS011;16707;48.106;11.548;2023-05-29T07:52:06;6.30;;;4.00;;
29812;SDS011;16707;48.106;11.548;2023-05-29T07:54:34;7.57;;;4.47;;
29812;SDS011;16707;48.106;11.548;2023-05-29T07:57:01;7.85;;;4.18;;
29812;SDS011;16707;48.106;11.548;2023-05-29T08:02:05;7.65;;;4.47;;
29812;SDS011;16707;48.106;11.548;2023-05-29T08:04:36;9.02;;;4.68;;
29812;SDS011;16707;48.106;11.548;2023-05-29T08:07:13;6.65;;;4.20;;
29812;SDS011;16707;48.106;11.548;2023-05-29T08:09:40;5.10;;;4.38;;
29812;SDS011;16707;48.106;11.548;2023-05-29T08:12:10;7.55;;;4.43;;
29812;SDS011;16707;48.106;11.548;2023-05-29T08:14:40;10.25;;;4.70;;
29812;SDS011;16707;48.106;11.548;2023-05-29T08:17:10;6.80;;;4.95;;
29812;SDS011;16707;48.106;11.548;2023-05-29T08:19:42;6.70;;;4.65;;
29812;SDS011;16707;48.106;11.548;2023-05-29T08:22:17;6.97;;;4.60;;
29812;SDS011;16707;48.106;11.548;2023-05-29T08:24:55;6.70;;;4.50;;
29812;SDS011;16707;48.106;11.548;2023-05-29T08:27:24;7.20;;;4.93;;
29812;SDS011;16707;48.106;11.548;2023-05-29T08:29:51;7.03;;;4.43;;
29812;SDS011;16707;48.106;11.548;2023-05-29T08:32:22;7.85;;;4.80;;
29812;SDS011;16707;48.106;11.548;2023-05-29T08:34:49;7.22;;;4.88;;
29812;SDS011;16707;48.106;11.548;2023-05-29T08:37:22;6.15;;;4.05;;
29812;SDS011;16707;48.106;11.548;2023-05-29T08:39:53;7.93;;;4.82;;
29812;SDS011;16707;48.106;11.548;2023-05-29T08:42:21;7.55;;;5.25;;
29812;SDS011;16707;48.106;11.548;2023-05-29T08:44:58;8.10;;;5.72;;
29812;SDS011;16707;48.106;11.548;2023-05-29T08:47:35;7.20;;;4.53;;
29812;SDS011;16707;48.106;11.548;2023-05-29T08:50:05;6.88;;;4.70;;
29812;SDS011;16707;48.106;11.548;2023-05-29T08:52:44;6.05;;;4.32;;
29812;SDS011;16707;48.106;11.548;2023-05-29T08:55:15;6.43;;;4.65;;
29812;SDS011;16707;48.106;11.548;2023-05-29T08:57:45;6.25;;;4.07;;
29812;SDS011;16707;48.106;11.548;2023-05-29T09:00:13;6.65;;;4.65;;
29812;SDS011;16707;48.106;11.548;2023-05-29T09:02:43;7.50;;;5.13;;
29812;SDS011;16707;48.106;11.548;2023-05-29T09:05:10;5.85;;;3.78;;
29812;SDS011;16707;48.106;11.548;2023-05-29T09:07:46;7.55;;;4.03;;
29812;SDS011;16707;48.106;11.548;2023-05-29T09:10:23;7.43;;;4.25;;
29812;SDS011;16707;48.106;11.548;2023-05-29T09:12:51;8.98;;;5.57;;
29812;SDS011;16707;48.106;11.548;2023-05-29T09:15:22;7.40;;;4.25;;
29812;SDS011;16707;48.106;11.548;2023-05-29T09:17:51;7.20;;;4.80;;
29812;SDS011;16707;48.106;11.548;2023-05-29T09:20:30;7.70;;;4.57;;
29812;SDS011;16707;48.106;11.548;2023-05-29T09:23:16;7.50;;;3.92;;
29812;SDS011;16707;48.106;11.548;2023-05-29T09:25:50;6.28;;;4.07;;
29812;SDS011;16707;48.106;11.548;2023-05-29T09:28:19;6.80;;;3.65;;
29812;SDS011;16707;48.106;11.548;2023-05-29T09:31:06;7.45;;;5.00;;
29812;SDS011;16707;48.106;11.548;2023-05-29T09:33:51;9.30;;;4.18;;
29812;SDS011;16707;48.106;11.548;2023-05-29T09:36:22;5.13;;;3.50;;
29812;SDS011;16707;48.106;11.548;2023-05-29T09:39:02;9.57;;;4.53;;
29812;SDS011;16707;48.106;11.548;2023-05-29T09:41:31;6.45;;;3.83;;
29812;SDS011;16707;48.106;11.548;2023-05-29T09:43:59;7.00;;;4.00;;
29812;SDS011;16707;48.106;11.548;2023-05-29T09:46:28;6.32;;;4.47;;
29812;SDS011;16707;48.106;11.548;2023-05-29T09:49:06;10.95;;;3.85;;
29812;SDS011;16707;48.106;11.548;2023-05-29T09:51:38;6.35;;;3.55;;
29812;SDS011;16707;48.106;11.548;2023-05-29T09:54:22;6.15;;;3.88;;
29812;SDS011;16707;48.106;11.548;2023-05-29T09:56:57;5.45;;;4.18;;
29812;SDS011;16707;48.106;11.548;2023-05-29T09:59:29;5.80;;;4.13;;
29812;SDS011;16707;48.106;11.548;2023-05-29T10:02:00;6.30;;;3.67;;
29812;SDS011;16707;48.106;11.548;2023-05-29T10:04:29;6.88;;;4.18;;
29812;SDS011;16707;48.106;11.548;2023-05-29T10:07:00;5.30;;;3.90;;
29812;SDS011;16707;48.106;11.548;2023-05-29T10:09:41;6.05;;;3.70;;
29812;SDS011;16707;48.106;11.548;2023-05-29T10:12:19;5.40;;;3.95;;
29812;SDS011;16707;48.106;11.548;2023-05-29T10:14:49;5.03;;;3.80;;
29812;SDS011;16707;48.106;11.548;2023-05-29T10:17:25;6.80;;;3.97;;
29812;SDS011;16707;48.106;11.548;2023-05-29T10:20:09;6.78;;;3.88;;
29812;SDS011;16707;48.106;11.548;2023-05-29T10:22:49;5.50;;;3.92;;
29812;SDS011;16707;48.106;11.548;2023-05-29T10:25:22;6.47;;;3.83;;
29812;SDS011;16707;48.106;11.548;2023-05-29T10:27:53;6.32;;;3.65;;
29812;SDS011;16707;48.106;11.548;2023-05-29T10:30:25;5.07;;;3.72;;
29812;SDS011;16707;48.106;11.548;2023-05-29T10:33:04;7.55;;;4.03;;
29812;SDS011;16707;48.106;11.548;2023-05-29T10:35:50;7.60;;;3.65;;
29812;SDS011;16707;48.106;11.548;2023-05-29T10:38:31;6.00;;;3.72;;
29812;SDS011;16707;48.106;11.548;2023-05-29T10:44:37;7.07;;;3.80;;
29812;SDS011;16707;48.106;11.548;2023-05-29T10:47:08;5.35;;;3.92;;
29812;SDS011;16707;48.106;11.548;2023-05-29T10:49:48;4.63;;;3.47;;
29812;SDS011;16707;48.106;11.548;2023-05-29T10:52:21;7.65;;;3.65;;
29812;SDS011;16707;48.106;11.548;2023-05-29T10:54:54;4.78;;;3.20;;
29812;SDS011;16707;48.106;11.548;2023-05-29T10:57:33;6.20;;;3.45;;
29812;SDS011;16707;48.106;11.548;2023-05-29T11:00:16;6.50;;;3.55;;
29812;SDS011;16707;48.106;11.548;2023-05-29T11:02:51;6.38;;;3.42;;
29812;SDS011;16707;48.106;11.548;2023-05-29T11:05:23;5.03;;;3.63;;
29812;SDS011;16707;48.106;11.548;2023-05-29T11:07:52;6.60;;;3.53;;
29812;SDS011;16707;48.106;11.548;2023-05-29T11:13:32;6.35;;;3.83;;
29812;SDS011;16707;48.106;11.548;2023-05-29T11:16:05;7.30;;;3.80;;
29812;SDS011;16707;48.106;11.548;2023-05-29T11:18:43;6.03;;;3.25;;
29812;SDS011;16707;48.106;11.548;2023-05-29T11:21:33;6.88;;;3.53;;
29812;SDS011;16707;48.106;11.548;2023-05-29T11:24:25;5.15;;;3.42;;
29812;SDS011;16707;48.106;11.548;2023-05-29T11:26:53;6.18;;;3.72;;
29812;SDS011;16707;48.106;11.548;2023-05-29T11:29:26;5.65;;;3.40;;
29812;SDS011;16707;48.106;11.548;2023-05-29T11:31:58;5.20;;;3.80;;
29812;SDS011;16707;48.106;11.548;2023-05-29T11:34:38;5.78;;;3.33;;
29812;SDS011;16707;48.106;11.548;2023-05-29T11:37:07;5.45;;;3.45;;
29812;SDS011;16707;48.106;11.548;2023-05-29T11:39:38;5.57;;;3.30;;
29812;SDS011;16707;48.106;11.548;2023-05-29T11:42:09;7.20;;;3.28;;
29812;SDS011;16707;48.106;11.548;2023-05-29T11:44:42;8.02;;;4.10;;
29812;SDS011;16707;48.106;11.548;2023-05-29T11:47:14;5.53;;;3.90;;
29812;SDS011;16707;48.106;11.548;2023-05-29T11:49:44;5.07;;;3.10;;
29812;SDS011;16707;48.106;11.548;2023-05-29T11:52:21;6.20;;;3.63;;
29812;SDS011;16707;48.106;11.548;2023-05-29T11:54:49;4.00;;;3.17;;
29812;SDS011;16707;48.106;11.548;2023-05-29T11:57:18;7.32;;;3.15;;
29812;SDS011;16707;48.106;11.548;2023-05-29T11:59:57;5.63;;;3.28;;
29812;SDS011;16707;48.106;11.548;2023-05-29T12:02:39;6.93;;;3.45;;
29812;SDS011;16707;48.106;11.548;2023-05-29T12:05:08;5.10;;;3.20;;
29812;SDS011;16707;48.106;11.548;2023-05-29T12:07:46;3.97;;;2.67;;
29812;SDS011;16707;48.106;11.548;2023-05-29T12:10:15;5.00;;;3.17;;
29812;SDS011;16707;48.106;11.548;2023-05-29T12:12:46;4.93;;;3.40;;
29812;SDS011;16707;48.106;11.548;2023-05-29T12:15:16;5.40;;;3.20;;
29812;SDS011;16707;48.106;11.548;2023-05-29T12:17:48;7.82;;;3.60;;
29812;SDS011;16707;48.106;11.548;2023-05-29T12:20:17;6.80;;;3.53;;
29812;SDS011;16707;48.106;11.548;2023-05-29T12:22:45;5.88;;;3.22;;
29812;SDS011;16707;48.106;11.548;2023-05-29T12:25:16;4.43;;;3.00;;
29812;SDS011;16707;48.106;11.548;2023-05-29T12:27:51;5.35;;;4.05;;
29812;SDS011;16707;48.106;11.548;2023-05-29T12:30:30;5.80;;;3.55;;
29812;SDS011;16707;48.106;11.548;2023-05-29T12:33:05;6.45;;;3.20;;
29812;SDS011;16707;48.106;11.548;2023-05-29T12:35:41;5.72;;;3.22;;
29812;SDS011;16707;48.106;11.548;2023-05-29T12:38:19;5.43;;;3.47;;
29812;SDS011;16707;48.106;11.548;2023-05-29T12:40:47;4.88;;;3.50;;
29812;SDS011;16707;48.106;11.548;2023-05-29T12:43:16;7.60;;;3.15;;
29812;SDS011;16707;48.106;11.548;2023-05-29T12:45:53;5.45;;;3.60;;
29812;SDS011;16707;48.106;11.548;2023-05-29T12:48:28;5.18;;;3.58;;
29812;SDS011;16707;48.106;11.548;2023-05-29T12:51:04;5.13;;;3.40;;
29812;SDS011;16707;48.106;11.548;2023-05-29T12:53:38;5.68;;;3.17;;
29812;SDS011;16707;48.106;11.548;2023-05-29T12:56:08;6.88;;;3.03;;
29812;SDS011;16707;48.106;11.548;2023-05-29T12:58:50;3.85;;;3.00;;
29812;SDS011;16707;48.106;11.548;2023-05-29T13:01:21;5.32;;;3.83;;
29812;SDS011;16707;48.106;11.548;2023-05-29T13:03:52;4.80;;;3.30;;
29812;SDS011;16707;48.106;11.548;2023-05-29T13:06:29;6.22;;;3.40;;
29812;SDS011;16707;48.106;11.548;2023-05-29T13:08:57;5.70;;;3.17;;
29812;SDS011;16707;48.106;11.548;2023-05-29T13:11:29;6.78;;;2.95;;
29812;SDS011;16707;48.106;11.548;2023-05-29T13:13:58;4.03;;;3.10;;
29812;SDS011;16707;48.106;11.548;2023-05-29T13:16:30;5.47;;;3.72;;
29812;SDS011;16707;48.106;11.548;2023-05-29T13:19:00;5.05;;;3.05;;
29812;SDS011;16707;48.106;11.548;2023-05-29T13:21:28;6.15;;;3.38;;
29812;SDS011;16707;48.106;11.548;2023-05-29T13:23:58;5.80;;;3.45;;
29812;SDS011;16707;48.106;11.548;2023-05-29T13:26:35;5.00;;;3.28;;
29812;SDS011;16707;48.106;11.548;2023-05-29T13:29:14;5.78;;;3.17;;
29812;SDS011;16707;48.106;11.548;2023-05-29T13:31:48;15.55;;;12.48;;
29812;SDS011;16707;48.106;11.548;2023-05-29T13:34:15;7.53;;;3.92;;
29812;SDS011;16707;48.106;11.548;2023-05-29T13:37:02;5.05;;;3.75;;
29812;SDS011;16707;48.106;11.548;2023-05-29T13:39:29;6.82;;;3.75;;
29812;SDS011;16707;48.106;11.548;2023-05-29T13:41:56;5.05;;;3.00;;
29812;SDS011;16707;48.106;11.548;2023-05-29T13:44:25;4.93;;;3.50;;
29812;SDS011;16707;48.106;11.548;2023-05-29T13:47:04;4.53;;;3.03;;
29812;SDS011;16707;48.106;11.548;2023-05-29T13:49:33;5.45;;;3.60;;
29812;SDS011;16707;48.106;11.548;2023-05-29T13:52:03;4.40;;;3.10;;
29812;SDS011;16707;48.106;11.548;2023-05-29T13:54:44;5.88;;;3.38;;
29812;SDS011;16707;48.106;11.548;2023-05-29T13:57:14;6.05;;;3.40;;
29812;SDS011;16707;48.106;11.548;2023-05-29T13:59:46;5.53;;;3.58;;
29812;SDS011;16707;48.106;11.548;2023-05-29T14:02:18;5.35;;;3.20;;
29812;SDS011;16707;48.106;11.548;2023-05-29T14:04:57;5.07;;;3.35;;
29812;SDS011;16707;48.106;11.548;2023-05-29T14:07:29;4.20;;;3.13;;
29812;SDS011;16707;48.106;11.548;2023-05-29T14:09:59;4.72;;;3.25;;
29812;SDS011;16707;48.106;11.548;2023-05-29T14:12:37;4.72;;;2.95;;
29812;SDS011;16707;48.106;11.548;2023-05-29T14:15:13;4.78;;;3.50;;
29812;SDS011;16707;48.106;11.548;2023-05-29T14:17:45;5.78;;;3.00;;
29812;SDS011;16707;48.106;11.548;2023-05-29T14:20:21;4.60;;;3.33;;
29812;SDS011;16707;48.106;11.548;2023-05-29T14:22:48;4.85;;;3.15;;
29812;SDS011;16707;48.106;11.548;2023-05-29T14:25:18;5.45;;;3.00;;
29812;SDS011;16707;48.106;11.548;2023-05-29T14:27:46;6.03;;;3.65;;
29812;SDS011;16707;48.106;11.548;2023-05-29T14:30:13;4.50;;;3.63;;
29812;SDS011;16707;48.106;11.548;2023-05-29T14:32:45;5.05;;;3.17;;
29812;SDS011;16707;48.106;11.548;2023-05-29T14:35:18;5.03;;;3.75;;
29812;SDS011;16707;48.106;11.548;2023-05-29T14:37:47;4.47;;;3.22;;
29812;SDS011;16707;48.106;11.548;2023-05-29T14:40:15;6.68;;;4.45;;
29812;SDS011;16707;48.106;11.548;2023-05-29T14:42:46;5.30;;;3.60;;
29812;SDS011;16707;48.106;11.548;2023-05-29T14:45:13;5.82;;;3.58;;
29812;SDS011;16707;48.106;11.548;2023-05-29T14:47:45;6.00;;;3.65;;
29812;SDS011;16707;48.106;11.548;2023-05-29T14:50:16;6.10;;;4.10;;
29812;SDS011;16707;48.106;11.548;2023-05-29T14:52:43;6.13;;;3.72;;
29812;SDS011;16707;48.106;11.548;2023-05-29T14:55:12;4.65;;;3.55;;
29812;SDS011;16707;48.106;11.548;2023-05-29T14:57:46;4.65;;;3.42;;
29812;SDS011;16707;48.106;11.548;2023-05-29T15:00:17;4.47;;;3.10;;
29812;SDS011;16707;48.106;11.548;2023-05-29T15:02:48;3.88;;;2.92;;
29812;SDS011;16707;48.106;11.548;2023-05-29T15:05:18;6.88;;;3.65;;
29812;SDS011;16707;48.106;11.548;2023-05-29T15:07:46;7.75;;;4.20;;
29812;SDS011;16707;48.106;11.548;2023-05-29T15:10:15;3.92;;;3.00;;
29812;SDS011;16707;48.106;11.548;2023-05-29T15:12:45;4.38;;;3.30;;
29812;SDS011;16707;48.106;11.548;2023-05-29T15:15:12;4.72;;;3.20;;